Time;durP1;ratioP1;P1;durP2;ratioP2;P2;SDS_P1;SDS_P2;PMS_P1;PMS_P2;Temp;Humidity;BMP_temperature;BMP_pressure;BME280_temperature;BME280_humidity;BME280_pressure;Samples;Min_cycle;Max_cycle;Signal;HPM_P1;HPM_P2
2021/12/08 00:00:08;;;;;;;1.60;0.90;;;;;;;3.51;81.32;98528.28;3074046;28;20138;-71
2021/12/08 00:01:40;;;;;;;1.65;0.80;;;;;;;3.49;81.49;98535.22;3072377;28;20050;-71
2021/12/08 00:03:13;;;;;;;1.30;0.88;;;;;;;3.50;81.49;98532.59;3073143;28;20051;-71
2021/12/08 00:04:45;;;;;;;;;;;;;;;3.29;81.58;98536.78;3069502;28;20157;-71
2021/12/08 00:06:17;;;;;;;2.60;0.80;;;;;;;3.36;82.05;98542.53;3074077;28;19934;-70
2021/12/08 00:07:50;;;;;;;2.88;1.38;;;;;;;3.41;81.77;98538.91;3078817;28;20106;-70
2021/12/08 00:09:28;;;;;;;1.27;0.70;;;;;;;3.40;81.64;98539.81;3071798;28;20070;-71
2021/12/08 00:13:03;;;;;;;1.17;0.80;;;;;;;3.47;81.93;98548.16;3072356;28;20051;-72
2021/12/08 00:14:35;;;;;;;5.13;0.90;;;;;;;3.48;81.83;98552.38;3078659;28;20661;-72
2021/12/08 00:16:14;;;;;;;1.20;0.70;;;;;;;3.49;81.66;98550.66;3072948;28;20061;-72
2021/12/08 00:17:46;;;;;;;1.48;0.68;;;;;;;3.51;81.72;98551.44;3061175;29;20055;-72
2021/12/08 00:19:18;;;;;;;2.22;0.90;;;;;;;3.46;81.70;98551.63;3067455;28;20063;-70
2021/12/08 00:20:51;;;;;;;2.40;0.80;;;;;;;3.47;81.47;98550.72;3072884;28;20480;-71
2021/12/08 00:22:23;;;;;;;1.50;0.70;;;;;;;3.47;81.59;98558.44;3072776;28;20158;-71
2021/12/08 00:23:56;;;;;;;1.67;0.90;;;;;;;3.49;81.65;98558.38;3073512;28;20046;-71
2021/12/08 00:25:29;;;;;;;1.10;0.70;;;;;;;3.48;81.55;98565.25;3080149;28;20105;-71
2021/12/08 00:27:01;;;;;;;;;;;;;;;3.25;81.76;98560.94;3073447;28;20055;-69
2021/12/08 00:28:35;;;;;;;1.38;0.70;;;;;;;3.25;82.02;98548.06;3071458;28;20252;-70
2021/12/08 00:30:08;;;;;;;2.05;0.60;;;;;;;3.39;81.99;98561.28;3072791;28;20601;-70
2021/12/08 00:31:45;;;;;;;1.10;0.70;;;;;;;3.37;81.88;98560.50;3074926;28;20058;-71
2021/12/08 00:33:19;;;;;;;1.40;0.65;;;;;;;3.48;81.79;98569.56;3076578;28;20492;-71
2021/12/08 00:34:51;;;;;;;0.93;0.65;;;;;;;3.40;81.91;98550.13;3074126;28;20146;-69
2021/12/08 00:36:29;;;;;;;1.30;0.63;;;;;;;3.50;81.64;98571.19;3074159;28;20173;-70
2021/12/08 00:38:01;;;;;;;1.15;0.68;;;;;;;3.50;81.83;98568.63;3073754;28;20055;-71
2021/12/08 00:39:33;;;;;;;1.83;0.82;;;;;;;3.48;81.79;98572.16;3076192;28;20091;-70
2021/12/08 00:41:04;;;;;;;1.20;0.80;;;;;;;3.49;81.79;98571.25;3075272;28;20106;-72
2021/12/08 00:42:37;;;;;;;1.65;0.70;;;;;;;3.49;81.70;98568.66;3074978;28;20181;-70
2021/12/08 00:44:11;;;;;;;1.40;0.70;;;;;;;3.53;81.76;98580.56;3075296;28;20046;-70
2021/12/08 00:45:43;;;;;;;6.00;0.68;;;;;;;3.32;81.57;98544.41;3074144;28;20118;-71
2021/12/08 00:47:16;;;;;;;2.17;0.82;;;;;;;3.52;81.71;98578.84;3074248;28;20883;-72
2021/12/08 00:48:50;;;;;;;0.98;0.65;;;;;;;3.44;81.66;98579.16;3071568;28;20051;-70
2021/12/08 00:50:24;;;;;;;1.75;0.70;;;;;;;3.49;81.62;98581.53;3075653;28;20113;-70
2021/12/08 00:51:57;;;;;;;1.20;0.60;;;;;;;3.49;81.79;98582.41;3074054;28;20141;-69
2021/12/08 00:53:29;;;;;;;1.50;0.88;;;;;;;3.52;81.72;98579.72;3075298;28;20113;-69
2021/12/08 00:55:02;;;;;;;1.88;0.90;;;;;;;3.55;81.48;98586.47;3074720;28;20299;-69
2021/12/08 00:56:34;;;;;;;;;;;;;;;3.37;81.74;98578.53;3073585;28;20139;-69
2021/12/08 00:58:06;;;;;;;1.40;0.77;;;;;;;3.43;82.16;98585.16;3076178;28;20449;-69
2021/12/08 00:59:39;;;;;;;1.13;0.60;;;;;;;3.51;81.95;98582.34;3073833;28;20058;-69
2021/12/08 01:01:12;;;;;;;;;;;;;;;3.29;82.17;98583.09;3075959;28;20054;-69
2021/12/08 01:02:45;;;;;;;0.88;0.60;;;;;;;3.41;82.30;98579.25;3077180;28;20565;-69
2021/12/08 01:04:17;;;;;;;1.50;0.70;;;;;;;3.45;82.09;98583.38;3075123;28;20055;-69
2021/12/08 01:05:51;;;;;;;1.55;0.63;;;;;;;3.51;81.90;98584.91;3077347;28;20113;-69
2021/12/08 01:07:23;;;;;;;1.40;0.60;;;;;;;3.52;82.01;98574.56;3075157;28;20522;-68
2021/12/08 01:08:55;;;;;;;1.73;0.70;;;;;;;3.56;81.87;98578.69;3078489;28;20068;-68
2021/12/08 01:10:29;;;;;;;2.38;0.75;;;;;;;3.60;81.84;98582.00;3073078;28;20064;-68
2021/12/08 01:12:02;;;;;;;1.52;0.70;;;;;;;3.62;81.66;98575.91;3075976;28;20564;-69
2021/12/08 01:13:34;;;;;;;;;;;;;;;3.40;81.76;98580.13;3077863;28;20082;-68
2021/12/08 01:15:09;;;;;;;0.93;0.68;;;;;;;3.47;82.05;98570.47;3075511;28;20391;-68
2021/12/08 01:16:41;;;;;;;1.35;0.63;;;;;;;3.56;81.72;98570.97;3073374;28;20153;-68
2021/12/08 01:18:13;;;;;;;1.27;0.68;;;;;;;3.55;81.66;98568.44;3071464;28;20066;-68
2021/12/08 01:19:45;;;;;;;1.40;0.77;;;;;;;3.63;81.57;98582.72;3074106;28;20441;-69
2021/12/08 01:21:20;;;;;;;1.30;0.77;;;;;;;3.31;81.60;98519.56;3073468;28;20131;-71
2021/12/08 01:22:52;;;;;;;1.88;0.90;;;;;;;3.64;81.61;98574.13;3076479;28;20054;-69
2021/12/08 01:24:24;;;;;;;1.58;0.52;;;;;;;3.68;81.41;98574.84;3074025;28;20051;-70
2021/12/08 01:25:57;;;;;;;1.27;0.50;;;;;;;3.65;81.30;98573.22;3074455;28;20067;-68
2021/12/08 01:27:30;;;;;;;3.80;0.73;;;;;;;3.65;81.35;98580.09;3074643;28;20111;-68
2021/12/08 01:29:03;;;;;;;0.98;0.60;;;;;;;3.66;81.48;98574.03;3073730;28;20051;-68
2021/12/08 01:30:37;;;;;;;1.58;0.77;;;;;;;3.68;81.44;98574.84;3075326;28;20046;-68
2021/12/08 01:32:09;;;;;;;2.08;0.80;;;;;;;3.65;81.36;98572.38;3073711;28;20243;-69
2021/12/08 01:33:41;;;;;;;1.55;0.65;;;;;;;3.69;81.31;98580.81;3073475;28;20078;-70
2021/12/08 01:35:13;;;;;;;1.45;0.85;;;;;;;3.62;81.18;98565.59;3070616;28;20555;-70
2021/12/08 01:36:45;;;;;;;1.10;0.65;;;;;;;3.70;81.10;98587.63;3073878;28;20130;-70
2021/12/08 01:38:18;;;;;;;1.33;0.70;;;;;;;3.71;81.00;98584.19;3072763;28;20299;-70
2021/12/08 01:39:50;;;;;;;1.60;0.80;;;;;;;3.68;80.97;98580.00;3073749;28;20524;-68
2021/12/08 01:41:23;;;;;;;1.38;0.70;;;;;;;3.65;81.00;98585.25;3074385;28;20102;-69
2021/12/08 01:42:58;;;;;;;1.77;0.70;;;;;;;3.70;80.94;98575.63;3071694;28;20050;-69
2021/12/08 01:46:22;;;;;;;1.65;0.70;;;;;;;3.65;80.95;98578.34;3076735;28;20082;-71
2021/12/08 01:47:54;;;;;;;1.70;0.55;;;;;;;3.72;80.85;98591.00;3083261;28;20069;-71
2021/12/08 01:49:26;;;;;;;1.08;0.70;;;;;;;3.71;80.87;98589.34;3082788;28;20088;-71
2021/12/08 01:51:01;;;;;;;1.48;0.70;;;;;;;3.74;80.82;98595.22;3083596;28;20137;-71
2021/12/08 01:52:32;;;;;;;2.53;0.80;;;;;;;3.67;80.67;98593.75;3086540;28;20436;-71
2021/12/08 01:54:06;;;;;;;1.70;0.80;;;;;;;3.69;80.64;98591.97;3081104;28;20055;-71
2021/12/08 01:55:39;;;;;;;1.55;0.80;;;;;;;3.72;80.64;98602.13;3083132;28;20058;-73
2021/12/08 01:57:11;;;;;;;1.55;0.60;;;;;;;3.69;80.59;98597.09;3080547;28;20053;-71
2021/12/08 01:58:43;;;;;;;2.17;0.70;;;;;;;3.66;80.54;98586.91;3083590;28;20137;-71
2021/12/08 02:00:19;;;;;;;1.08;0.50;;;;;;;3.69;80.42;98591.97;3085839;28;20054;-70
2021/12/08 02:01:53;;;;;;;2.17;0.70;;;;;;;3.76;80.33;98603.72;3081172;28;20047;-70
2021/12/08 02:03:25;;;;;;;1.95;0.73;;;;;;;3.78;80.36;98607.06;3090266;28;20436;-70
2021/12/08 02:04:57;;;;;;;1.75;1.00;;;;;;;3.73;80.41;98603.84;3082140;28;20051;-70
2021/12/08 02:06:29;;;;;;;2.17;0.77;;;;;;;3.74;80.50;98605.50;3085548;28;20493;-69
2021/12/08 02:08:01;;;;;;;1.67;0.80;;;;;;;3.71;80.31;98592.75;3080161;28;20121;-71
2021/12/08 02:09:33;;;;;;;2.13;0.80;;;;;;;3.68;80.33;98592.88;3087299;28;20050;-71
2021/12/08 02:11:06;;;;;;;1.98;1.00;;;;;;;3.80;80.31;98604.44;3085577;28;20165;-71
2021/12/08 02:12:40;;;;;;;;;;;;;;;3.59;80.47;98608.63;3075701;28;20285;-70
2021/12/08 02:14:13;;;;;;;1.23;0.70;;;;;;;3.61;80.87;98604.28;3073673;28;19942;-69
2021/12/08 02:15:46;;;;;;;1.73;0.80;;;;;;;3.67;80.77;98611.78;3072950;28;20064;-70
2021/12/08 02:17:20;;;;;;;1.48;0.75;;;;;;;3.46;80.58;98568.78;3074130;28;20055;-69
2021/12/08 02:18:52;;;;;;;1.33;0.52;;;;;;;3.73;80.68;98618.47;3074435;28;20103;-70
2021/12/08 02:20:28;;;;;;;1.80;0.95;;;;;;;3.79;80.53;98607.94;3068103;28;20066;-70
2021/12/08 02:22:02;;;;;;;1.23;0.70;;;;;;;3.70;80.21;98597.94;3076652;28;20057;-71
2021/12/08 02:23:34;;;;;;;2.03;0.70;;;;;;;3.74;80.00;98613.22;3074152;28;20068;-70
2021/12/08 02:25:09;;;;;;;1.13;0.50;;;;;;;3.80;79.95;98620.72;3075430;28;20518;-70
2021/12/08 02:26:44;;;;;;;1.73;0.80;;;;;;;3.77;79.85;98618.28;3072589;28;20054;-70
2021/12/08 02:28:16;;;;;;;1.33;0.50;;;;;;;3.78;79.81;98622.50;3062941;29;20059;-71
2021/12/08 02:29:55;;;;;;;1.80;0.80;;;;;;;3.81;79.71;98619.81;3071823;28;20053;-71
2021/12/08 02:31:35;;;;;;;2.58;0.77;;;;;;;3.79;79.73;98619.06;3073589;28;20058;-70
2021/12/08 02:47:54;;;;;;;1.50;0.68;;;;;;;3.79;78.97;98637.09;3071513;28;20046;-70
2021/12/08 02:49:26;;;;;;;2.58;0.68;;;;;;;3.80;78.57;98633.59;3074394;28;20142;-71
2021/12/08 02:50:59;;;;;;;1.92;0.68;;;;;;;3.77;78.61;98631.16;3071603;28;20053;-71
2021/12/08 02:52:31;;;;;;;2.65;0.90;;;;;;;3.82;78.53;98636.13;3072068;28;20065;-70
2021/12/08 02:54:05;;;;;;;1.00;0.77;;;;;;;3.89;78.55;98642.75;3071994;28;20800;-71
2021/12/08 02:55:39;;;;;;;1.48;0.80;;;;;;;3.91;78.24;98642.69;3073843;28;20089;-70
2021/12/08 02:57:13;;;;;;;1.73;0.77;;;;;;;3.80;78.16;98615.59;3080706;28;20153;-71
2021/12/08 02:58:45;;;;;;;;;;;;;;;3.74;78.17;98646.72;3071896;28;20206;-71
2021/12/08 03:00:25;;;;;;;1.52;0.70;;;;;;;3.77;78.32;98636.28;3076907;28;20178;-70
2021/12/08 03:01:57;;;;;;;1.75;0.93;;;;;;;3.81;78.28;98637.84;3072851;28;20369;-69
2021/12/08 03:03:29;;;;;;;2.40;1.05;;;;;;;3.93;78.08;98659.75;3074124;28;20070;-71
2021/12/08 03:05:02;;;;;;;1.80;0.90;;;;;;;3.94;77.72;98652.88;3073099;28;20058;-70
2021/12/08 03:06:35;;;;;;;1.70;0.60;;;;;;;3.99;77.69;98658.69;3071577;28;20113;-70
2021/12/08 03:08:09;;;;;;;2.30;0.70;;;;;;;3.99;77.65;98656.09;3078087;28;20058;-70
2021/12/08 03:09:42;;;;;;;1.10;0.63;;;;;;;4.03;77.61;98657.69;3071571;28;21447;-70
2021/12/08 03:11:13;;;;;;;1.75;0.90;;;;;;;3.80;77.26;98635.34;3074626;28;20078;-69
2021/12/08 03:12:45;;;;;;;1.17;0.63;;;;;;;4.06;76.97;98671.28;3072702;28;20051;-69
2021/12/08 03:14:18;;;;;;;2.58;0.90;;;;;;;4.08;76.95;98676.38;3074225;28;20054;-70
2021/12/08 03:15:50;;;;;;;3.05;0.98;;;;;;;4.08;76.96;98676.38;3072138;28;20055;-69
2021/12/08 03:17:22;;;;;;;1.40;0.75;;;;;;;4.07;76.93;98670.38;3071692;28;20062;-69
2021/12/08 03:18:55;;;;;;;1.63;0.90;;;;;;;4.07;76.66;98669.56;3078864;28;20081;-69
2021/12/08 03:20:38;;;;;;;1.30;0.70;;;;;;;4.07;76.46;98682.44;3070988;28;20058;-68
2021/12/08 03:22:11;;;;;;;1.42;0.85;;;;;;;4.06;76.55;98667.88;3074256;28;20062;-71
2021/12/08 03:23:52;;;;;;;1.95;0.93;;;;;;;4.07;76.55;98677.28;3073102;28;20215;-70
2021/12/08 03:25:28;;;;;;;2.65;1.13;;;;;;;4.09;76.38;98678.91;3068344;28;20055;-71
2021/12/08 03:27:09;;;;;;;1.95;1.10;;;;;;;4.10;76.32;98685.72;3075013;28;20190;-71
2021/12/08 03:28:48;;;;;;;2.80;1.10;;;;;;;4.06;76.18;98686.75;3074358;28;20061;-70
2021/12/08 03:30:26;;;;;;;2.80;1.25;;;;;;;3.98;76.21;98677.63;3075028;28;20143;-70
2021/12/08 03:32:05;;;;;;;2.13;0.80;;;;;;;4.09;76.14;98686.63;3071694;28;20061;-70
2021/12/08 03:33:37;;;;;;;1.17;0.95;;;;;;;4.08;76.11;98692.69;3072316;28;20212;-72
2021/12/08 03:35:12;;;;;;;2.25;1.08;;;;;;;4.12;75.95;98693.41;3071616;28;20065;-69
2021/12/08 03:36:44;;;;;;;2.08;1.00;;;;;;;4.08;75.91;98684.09;3073809;28;20059;-70
2021/12/08 03:38:16;;;;;;;1.88;1.15;;;;;;;4.13;75.74;98692.50;3071997;28;20050;-69
2021/12/08 03:39:50;;;;;;;2.85;1.25;;;;;;;4.13;75.66;98694.25;3071609;28;20051;-69
2021/12/08 03:41:22;;;;;;;3.60;1.38;;;;;;;4.12;75.58;98696.00;3073440;28;20488;-69
2021/12/08 03:42:56;;;;;;;2.55;1.00;;;;;;;4.11;75.49;98689.16;3072988;28;20066;-69
2021/12/08 03:44:28;;;;;;;2.33;1.00;;;;;;;4.05;75.34;98689.38;3073470;28;20138;-69
2021/12/08 03:46:01;;;;;;;2.88;1.33;;;;;;;4.09;75.32;98694.38;3073756;28;20051;-69
2021/12/08 03:47:33;;;;;;;4.00;1.70;;;;;;;4.10;75.37;98695.19;3074819;28;20055;-70
2021/12/08 03:49:09;;;;;;;2.10;1.30;;;;;;;4.08;75.10;98702.13;3075029;28;20564;-69
2021/12/08 03:50:43;;;;;;;4.20;1.23;;;;;;;4.04;74.99;98704.00;3073831;28;20086;-70
2021/12/08 03:52:15;;;;;;;2.22;1.00;;;;;;;4.07;74.94;98711.59;3067245;28;20578;-71
2021/12/08 03:53:48;;;;;;;4.45;1.65;;;;;;;4.09;74.91;98714.16;3072395;28;20051;-71
2021/12/08 03:55:20;;;;;;;3.00;2.23;;;;;;;4.10;75.08;98713.25;3083139;28;20081;-70
2021/12/08 03:56:53;;;;;;;6.40;3.67;;;;;;;4.13;74.80;98712.28;3071288;28;20054;-69
2021/12/08 03:58:25;;;;;;;18.10;9.60;;;;;;;4.12;74.78;98711.47;3080983;28;20050;-70
2021/12/08 03:59:57;;;;;;;8.27;5.38;;;;;;;4.09;74.87;98709.81;3078677;28;20341;-69
2021/12/08 04:01:30;;;;;;;3.55;1.90;;;;;;;4.14;74.79;98722.56;3076103;28;20162;-69
2021/12/08 04:03:04;;;;;;;3.50;1.73;;;;;;;4.13;74.54;98715.72;3074724;28;20046;-68
2021/12/08 04:04:43;;;;;;;4.03;2.08;;;;;;;4.15;74.50;98711.34;3074891;28;20906;-67
2021/12/08 04:06:27;;;;;;;3.90;1.95;;;;;;;4.14;74.03;98722.56;3084453;28;20639;-69
2021/12/08 04:08:04;;;;;;;3.50;2.08;;;;;;;4.17;74.12;98721.56;3073321;28;20211;-69
2021/12/08 04:09:40;;;;;;;4.40;2.80;;;;;;;4.16;74.05;98722.50;3075106;28;20051;-70
2021/12/08 04:11:14;;;;;;;3.67;1.92;;;;;;;4.20;73.66;98732.63;3074345;28;20061;-69
2021/12/08 04:12:52;;;;;;;3.03;1.98;;;;;;;4.18;73.61;98712.97;3075344;28;20082;-69
2021/12/08 04:14:28;;;;;;;4.25;2.92;;;;;;;4.20;73.48;98726.63;3076129;28;20050;-69
2021/12/08 04:16:01;;;;;;;4.22;2.10;;;;;;;4.22;73.38;98733.41;3074064;28;20070;-69
2021/12/08 04:17:37;;;;;;;3.47;1.38;;;;;;;4.21;73.16;98734.31;3078832;28;20181;-69
2021/12/08 04:19:09;;;;;;;2.58;1.55;;;;;;;4.20;73.23;98726.63;3073292;28;20118;-69
2021/12/08 04:20:44;;;;;;;2.67;1.50;;;;;;;4.24;72.62;98734.19;3074983;28;20051;-70
2021/12/08 04:22:26;;;;;;;2.22;1.33;;;;;;;4.23;72.46;98736.81;3073782;28;20050;-70
2021/12/08 04:23:59;;;;;;;2.75;1.40;;;;;;;4.24;72.66;98733.38;3075768;28;20440;-69
2021/12/08 04:25:33;;;;;;;4.70;1.70;;;;;;;4.28;72.61;98737.50;3073506;28;20051;-69
2021/12/08 04:27:13;;;;;;;3.38;1.88;;;;;;;4.25;72.25;98719.56;3075783;28;20830;-70
2021/12/08 04:28:47;;;;;;;2.45;1.40;;;;;;;4.30;72.24;98727.97;3075085;28;20143;-70
2021/12/08 04:30:22;;;;;;;4.40;1.92;;;;;;;4.31;72.08;98735.63;3073959;28;20061;-70
2021/12/08 04:31:55;;;;;;;3.63;1.98;;;;;;;4.31;71.90;98735.63;3075775;28;20061;-70
2021/12/08 04:33:28;;;;;;;3.13;1.85;;;;;;;4.32;71.88;98736.50;3074159;28;20046;-70
2021/12/08 04:35:02;;;;;;;3.50;1.80;;;;;;;4.36;71.75;98726.91;3074803;28;20067;-70
2021/12/08 04:36:42;;;;;;;2.90;1.38;;;;;;;4.39;71.73;98726.81;3074049;28;20082;-69
2021/12/08 04:38:21;;;;;;;3.13;1.90;;;;;;;4.36;71.54;98727.75;3075744;28;20054;-68
2021/12/08 04:40:05;;;;;;;4.32;1.98;;;;;;;4.37;71.41;98739.72;3073445;28;20090;-68
2021/12/08 04:41:42;;;;;;;;;;;;;;;4.17;72.05;98735.34;3067091;28;20581;-68
2021/12/08 04:43:20;;;;;;;3.35;1.90;;;;;;;4.24;72.21;98733.38;3068536;28;19991;-68
2021/12/08 04:45:02;;;;;;;5.88;2.53;;;;;;;4.25;71.67;98729.88;3074814;28;20074;-69
2021/12/08 04:46:55;;;;;;;4.20;1.90;;;;;;;4.32;71.59;98741.66;3077137;28;20058;-71
2021/12/08 04:48:43;;;;;;;3.15;1.90;;;;;;;4.33;71.65;98743.34;3075402;28;20055;-68
2021/12/08 04:52:17;;;;;;;4.75;2.45;;;;;;;4.35;71.27;98741.53;3059220;28;20306;-68
2021/12/08 05:00:16;;;;;;;4.18;2.10;;;;;;;4.40;71.17;98756.81;3068061;28;20274;-68
2021/12/08 05:01:56;;;;;;;2.92;1.83;;;;;;;4.35;70.71;98767.31;3077080;28;20078;-69
2021/12/08 05:03:45;;;;;;;4.22;2.00;;;;;;;4.37;70.79;98769.81;3075606;28;20157;-71
2021/12/08 05:05:25;;;;;;;3.78;2.08;;;;;;;4.37;70.81;98775.81;3077543;28;20058;-70
2021/12/08 05:07:16;;;;;;;9.00;3.35;;;;;;;4.42;70.51;98780.81;3074970;28;20050;-70
2021/12/08 05:08:52;;;;;;;7.40;3.22;;;;;;;4.36;70.52;98770.75;3075348;28;20058;-70
2021/12/08 05:10:33;;;;;;;5.78;3.15;;;;;;;4.46;70.58;98779.81;3062938;29;20107;-70
2021/12/08 05:12:08;;;;;;;4.13;2.22;;;;;;;4.06;70.49;98709.09;3072138;28;20051;-70
2021/12/08 05:13:41;;;;;;;3.83;2.28;;;;;;;4.42;70.29;98775.66;3074251;28;20062;-70
2021/12/08 05:15:17;;;;;;;3.50;1.90;;;;;;;4.50;70.22;98789.97;3077228;28;20395;-70
2021/12/08 05:16:54;;;;;;;5.45;2.60;;;;;;;4.52;70.15;98790.72;3073051;28;20526;-69
2021/12/08 05:18:29;;;;;;;5.43;2.50;;;;;;;4.49;69.96;98784.84;3075341;28;20058;-71
2021/12/08 05:20:08;;;;;;;6.80;3.22;;;;;;;4.55;69.85;98789.78;3071575;28;20162;-71
2021/12/08 05:21:43;;;;;;;6.80;3.67;;;;;;;4.51;69.88;98783.06;3074183;28;20054;-71
2021/12/08 05:23:22;;;;;;;6.03;3.40;;;;;;;4.60;69.89;98793.03;3074191;28;20212;-70
2021/12/08 05:24:56;;;;;;;5.95;3.30;;;;;;;4.26;69.57;98744.44;3062923;29;20512;-70
2021/12/08 05:26:34;;;;;;;5.03;2.38;;;;;;;4.60;69.59;98790.44;3070141;28;20061;-70
2021/12/08 05:28:10;;;;;;;4.70;2.20;;;;;;;4.62;69.39;98795.56;3074199;28;20118;-70
2021/12/08 05:29:45;;;;;;;4.68;2.70;;;;;;;4.60;69.53;98784.47;3066676;28;20513;-69
2021/12/08 05:31:21;;;;;;;4.28;2.13;;;;;;;4.60;69.39;98781.88;3073458;28;20291;-69
2021/12/08 05:32:54;;;;;;;3.92;2.20;;;;;;;4.66;69.25;98792.81;3074609;28;20061;-70
2021/12/08 05:34:26;;;;;;;;;;;;;;;4.43;69.33;98792.81;3071509;28;20468;-70
2021/12/08 05:35:59;;;;;;;4.75;2.55;;;;;;;4.48;69.76;98799.47;3074362;28;19934;-70
2021/12/08 05:37:31;;;;;;;4.53;2.42;;;;;;;4.55;69.49;98806.09;3073275;28;20627;-70
2021/12/08 05:39:07;;;;;;;5.07;2.35;;;;;;;4.60;69.24;98800.78;3073990;28;20059;-71
2021/12/08 05:40:53;;;;;;;3.90;2.10;;;;;;;4.55;68.79;98800.09;3076687;28;20047;-70
2021/12/08 05:42:28;;;;;;;4.50;2.38;;;;;;;4.60;69.06;98803.34;3073412;28;20448;-69
2021/12/08 05:44:01;;;;;;;4.40;2.33;;;;;;;4.61;69.07;98809.34;3074825;28;20722;-69
2021/12/08 05:45:33;;;;;;;3.90;2.33;;;;;;;4.61;68.86;98815.34;3072006;28;20058;-69
2021/12/08 05:47:09;;;;;;;4.97;2.38;;;;;;;4.64;68.82;98815.22;3073690;28;20062;-69
2021/12/08 05:48:45;;;;;;;3.92;2.60;;;;;;;4.64;68.60;98817.78;3072897;28;20118;-69
2021/12/08 05:50:26;;;;;;;4.75;2.50;;;;;;;4.61;68.33;98812.75;3073707;28;20062;-68
2021/12/08 05:51:59;;;;;;;4.38;2.78;;;;;;;4.60;68.29;98812.81;3072287;28;20133;-70
2021/12/08 05:53:32;;;;;;;4.68;2.70;;;;;;;4.64;68.42;98819.53;3072708;28;20067;-70
2021/12/08 05:55:06;;;;;;;4.55;2.65;;;;;;;4.67;68.48;98819.44;3075437;28;20078;-68
2021/12/08 05:56:38;;;;;;;4.55;2.45;;;;;;;4.67;68.42;98829.75;3072483;28;20618;-69
2021/12/08 05:58:12;;;;;;;5.80;3.15;;;;;;;4.69;68.08;98813.31;3075323;28;20082;-69
2021/12/08 05:59:46;;;;;;;5.80;2.50;;;;;;;4.69;67.87;98828.78;3072600;28;20062;-69
2021/12/08 06:01:22;;;;;;;5.22;2.90;;;;;;;4.70;68.15;98816.72;3074532;28;20051;-72
2021/12/08 06:02:55;;;;;;;4.97;2.78;;;;;;;4.67;68.33;98822.00;3076245;28;20090;-74
2021/12/08 06:04:29;;;;;;;;;;;;;;;4.45;68.77;98822.78;3074321;28;20055;-72
2021/12/08 06:06:03;;;;;;;6.10;2.75;;;;;;;4.52;69.31;98826.81;3074697;28;20485;-74
2021/12/08 06:07:35;;;;;;;4.93;2.83;;;;;;;4.59;68.84;98834.34;3071941;28;20346;-72
2021/12/08 06:09:10;;;;;;;5.95;3.25;;;;;;;4.66;68.82;98838.38;3074472;28;20881;-70
2021/12/08 06:10:43;;;;;;;5.97;3.00;;;;;;;4.53;68.48;98817.38;3070177;28;20579;-66
2021/12/08 06:12:16;;;;;;;5.50;2.90;;;;;;;4.69;68.36;98841.69;3075500;28;20065;-70
2021/12/08 06:13:49;;;;;;;6.22;3.15;;;;;;;4.67;68.24;98835.72;3073601;28;20668;-70
2021/12/08 06:15:21;;;;;;;5.78;3.13;;;;;;;4.75;68.19;98854.34;3065577;28;20063;-70
2021/12/08 06:16:54;;;;;;;5.95;3.45;;;;;;;4.76;68.03;98850.91;3074320;28;20162;-70
2021/12/08 06:18:28;;;;;;;6.97;3.70;;;;;;;4.78;68.01;98854.25;3072328;28;20526;-70
2021/12/08 06:20:02;;;;;;;6.90;3.97;;;;;;;4.81;67.64;98863.59;3062815;29;20318;-69
2021/12/08 06:21:35;;;;;;;5.72;3.28;;;;;;;4.81;67.79;98858.44;3069012;28;20076;-69
2021/12/08 06:23:10;;;;;;;8.10;3.55;;;;;;;4.84;67.80;98857.50;3073479;28;20520;-70
2021/12/08 06:24:43;;;;;;;6.30;3.60;;;;;;;4.85;67.94;98856.59;3071802;28;20110;-69
2021/12/08 06:26:19;;;;;;;8.18;4.45;;;;;;;4.81;67.65;98857.63;3072233;28;20773;-70
2021/12/08 06:27:51;;;;;;;6.35;3.47;;;;;;;4.89;67.58;98866.75;3076077;28;20102;-70
2021/12/08 06:29:23;;;;;;;6.90;4.05;;;;;;;4.92;67.58;98866.63;3070747;28;20698;-68
2021/12/08 06:30:56;;;;;;;7.55;4.20;;;;;;;4.89;67.26;98861.59;3073958;28;20427;-67
2021/12/08 06:32:28;;;;;;;6.88;3.65;;;;;;;4.76;67.39;98844.88;3069234;28;20087;-68
2021/12/08 06:34:01;;;;;;;7.07;4.15;;;;;;;5.00;67.34;98881.84;3073756;28;20581;-67
2021/12/08 06:35:38;;;;;;;7.13;4.13;;;;;;;5.05;67.35;98887.66;3072744;28;20054;-67
2021/12/08 06:37:12;;;;;;;7.35;3.83;;;;;;;5.07;67.15;98880.72;3072786;28;20333;-68
2021/12/08 06:38:45;;;;;;;6.30;4.07;;;;;;;5.12;67.21;98883.13;3073820;28;20157;-70
2021/12/08 06:40:21;;;;;;;7.55;4.13;;;;;;;5.15;66.80;98872.69;3070389;28;20063;-68
2021/12/08 06:41:59;;;;;;;7.47;3.38;;;;;;;5.18;66.75;98885.47;3079531;28;20082;-68
2021/12/08 06:43:36;;;;;;;6.95;3.88;;;;;;;5.21;66.71;98886.19;3070658;28;20050;-67
2021/12/08 06:45:13;;;;;;;9.48;4.75;;;;;;;5.25;66.29;98894.66;3074511;28;20061;-68
2021/12/08 06:46:47;;;;;;;10.55;5.20;;;;;;;5.27;66.41;98892.03;3074720;28;20079;-68
2021/12/08 06:48:24;;;;;;;9.98;5.47;;;;;;;5.29;66.37;98908.28;3079151;28;20086;-69
2021/12/08 06:49:58;;;;;;;6.93;4.22;;;;;;;5.33;66.34;98899.53;3077498;28;20062;-77
2021/12/08 06:51:36;;;;;;;9.95;5.03;;;;;;;5.34;66.14;98893.47;3075565;28;20051;-67
2021/12/08 06:53:09;;;;;;;17.00;8.73;;;;;;;5.15;66.25;98868.38;3076729;28;20054;-67
2021/12/08 06:54:52;;;;;;;12.55;6.25;;;;;;;5.41;65.90;98900.94;3077077;28;20480;-68
2021/12/08 06:56:30;;;;;;;10.00;4.95;;;;;;;5.47;66.25;98905.84;3081262;28;20590;-67
2021/12/08 06:58:09;;;;;;;8.38;4.78;;;;;;;5.55;65.78;98910.72;3074377;28;20169;-69
2021/12/08 06:59:53;;;;;;;8.90;4.63;;;;;;;5.59;65.77;98907.13;3078525;28;20292;-72
2021/12/08 07:01:40;;;;;;;7.05;4.20;;;;;;;5.68;65.77;98911.09;3073722;28;20047;-75
2021/12/08 07:03:30;;;;;;;7.40;4.30;;;;;;;5.75;65.45;98909.09;3076820;28;20328;-76
2021/12/08 07:05:12;;;;;;;8.25;4.60;;;;;;;5.81;65.48;98901.09;3075409;28;20577;-69
2021/12/08 07:06:59;;;;;;;9.00;4.40;;;;;;;5.96;65.25;98907.44;3077084;28;20117;-69
2021/12/08 07:08:31;;;;;;;8.63;4.50;;;;;;;6.06;64.96;98914.75;3074376;28;20170;-69
2021/12/08 07:10:07;;;;;;;7.55;4.45;;;;;;;6.18;64.89;98915.13;3076708;28;20065;-69
2021/12/08 07:11:40;;;;;;;7.78;4.30;;;;;;;6.23;64.32;98913.19;3078950;28;20053;-69
2021/12/08 07:13:15;;;;;;;9.93;4.88;;;;;;;6.22;64.07;98912.38;3075288;28;20058;-69
2021/12/08 07:14:52;;;;;;;7.68;4.50;;;;;;;6.27;63.86;98914.75;3076230;28;20054;-69
2021/12/08 07:16:27;;;;;;;10.10;5.25;;;;;;;6.28;63.96;98919.03;3075010;28;20054;-70
2021/12/08 07:18:07;;;;;;;9.30;4.68;;;;;;;6.31;63.83;98918.91;3076272;28;20081;-69
2021/12/08 07:19:48;;;;;;;8.98;5.00;;;;;;;6.38;63.96;98917.72;3076720;28;20055;-70
2021/12/08 07:21:24;;;;;;;10.77;5.30;;;;;;;6.45;64.02;98916.56;3075519;28;20057;-69
2021/12/08 07:22:59;;;;;;;7.85;5.05;;;;;;;6.48;63.67;98916.44;3075574;28;20812;-70
2021/12/08 07:24:35;;;;;;;11.85;5.05;;;;;;;6.47;63.37;98909.56;3075763;28;20054;-69
2021/12/08 07:26:12;;;;;;;9.23;5.40;;;;;;;6.55;63.47;98920.44;3079227;28;20503;-69
2021/12/08 07:27:44;;;;;;;10.65;5.43;;;;;;;6.28;63.46;98873.31;3076556;28;20421;-69
2021/12/08 07:29:22;;;;;;;15.25;6.65;;;;;;;6.57;63.47;98923.81;3075942;28;20097;-69
2021/12/08 07:30:57;;;;;;;10.88;5.35;;;;;;;6.60;63.27;98928.03;3073954;28;20051;-69
2021/12/08 07:32:33;;;;;;;8.30;5.63;;;;;;;6.60;63.03;98923.69;3077256;28;20059;-69
2021/12/08 07:34:09;;;;;;;10.32;4.95;;;;;;;6.66;62.77;98934.69;3075650;28;20077;-69
2021/12/08 07:35:45;;;;;;;11.02;6.03;;;;;;;6.67;62.45;98929.44;3078143;28;20114;-68
2021/12/08 07:37:21;;;;;;;11.65;5.93;;;;;;;6.72;62.42;98939.59;3078362;28;20137;-69
2021/12/08 07:38:59;;;;;;;10.27;6.13;;;;;;;6.70;62.14;98931.03;3073661;28;20401;-68
2021/12/08 07:40:39;;;;;;;12.55;6.90;;;;;;;6.44;61.81;98876.09;3078372;28;20424;-68
2021/12/08 07:42:17;;;;;;;11.57;6.43;;;;;;;6.80;62.19;98940.94;3079088;28;20532;-68
2021/12/08 07:43:53;;;;;;;11.32;6.63;;;;;;;6.51;62.06;98885.28;3085921;28;20054;-68
2021/12/08 07:45:32;;;;;;;11.50;6.35;;;;;;;6.91;61.94;98932.69;3079217;28;20054;-70
2021/12/08 07:47:08;;;;;;;13.30;7.20;;;;;;;6.96;61.82;98928.16;3084032;28;20058;-68
2021/12/08 07:48:45;;;;;;;15.23;7.38;;;;;;;6.98;61.40;98926.34;3082141;28;20520;-67
2021/12/08 07:50:24;;;;;;;13.32;7.40;;;;;;;7.04;60.92;98935.59;3081502;28;20587;-68
2021/12/08 07:52:04;;;;;;;13.07;7.50;;;;;;;7.05;61.38;98930.34;3082022;28;20054;-67
2021/12/08 07:53:36;;;;;;;21.85;8.18;;;;;;;7.09;61.29;98938.78;3084745;28;20062;-68
2021/12/08 07:55:14;;;;;;;13.25;7.70;;;;;;;7.16;61.07;98937.63;3083674;28;20184;-68
2021/12/08 07:56:49;;;;;;;10.32;6.45;;;;;;;6.95;60.59;98907.50;3079606;28;20043;-68
2021/12/08 07:58:22;;;;;;;12.63;7.13;;;;;;;7.15;60.65;98942.88;3078108;28;20075;-68
2021/12/08 07:59:58;;;;;;;13.88;7.45;;;;;;;7.20;60.98;98933.97;3082061;28;20523;-68